sensor_id;sensor_type;location;lat;lon;timestamp;P1;durP1;ratioP1;P2;durP2;ratioP2
74291;SDS011;62687;55.738;37.516;2023-03-04T00:03:01;4.85;;;1.42;;
74291;SDS011;62687;55.738;37.516;2023-03-04T00:21:00;3.47;;;1.20;;
74291;SDS011;62687;55.738;37.516;2023-03-04T00:36:47;2.15;;;0.95;;
74291;SDS011;62687;55.738;37.516;2023-03-04T00:40:22;3.45;;;1.33;;
74291;SDS011;62687;55.738;37.516;2023-03-04T00:43:11;2.47;;;0.85;;
74291;SDS011;62687;55.738;37.516;2023-03-04T00:45:55;5.60;;;1.70;;
74291;SDS011;62687;55.738;37.516;2023-03-04T00:48:39;3.15;;;1.10;;
74291;SDS011;62687;55.738;37.516;2023-03-04T00:51:23;5.55;;;0.98;;
74291;SDS011;62687;55.738;37.516;2023-03-04T00:54:07;2.55;;;1.25;;
74291;SDS011;62687;55.738;37.516;2023-03-04T00:56:51;4.18;;;1.70;;
74291;SDS011;62687;55.738;37.516;2023-03-04T00:59:35;5.45;;;2.08;;
74291;SDS011;62687;55.738;37.516;2023-03-04T01:02:19;5.28;;;1.88;;
74291;SDS011;62687;55.738;37.516;2023-03-04T01:05:04;6.57;;;2.42;;
74291;SDS011;62687;55.738;37.516;2023-03-04T01:07:48;6.07;;;2.40;;
74291;SDS011;62687;55.738;37.516;2023-03-04T01:10:32;6.72;;;2.53;;
74291;SDS011;62687;55.738;37.516;2023-03-04T01:13:17;4.07;;;2.03;;
74291;SDS011;62687;55.738;37.516;2023-03-04T01:16:01;7.22;;;2.22;;
74291;SDS011;62687;55.738;37.516;2023-03-04T01:18:46;4.85;;;2.28;;
74291;SDS011;62687;55.738;37.516;2023-03-04T01:21:30;5.85;;;2.65;;
74291;SDS011;62687;55.738;37.516;2023-03-04T01:24:14;6.40;;;2.60;;
74291;SDS011;62687;55.738;37.516;2023-03-04T01:26:58;4.45;;;2.47;;
74291;SDS011;62687;55.738;37.516;2023-03-04T01:29:42;4.70;;;2.72;;
74291;SDS011;62687;55.738;37.516;2023-03-04T01:32:26;3.50;;;1.63;;
74291;SDS011;62687;55.738;37.516;2023-03-04T01:35:10;5.45;;;2.75;;
74291;SDS011;62687;55.738;37.516;2023-03-04T01:37:54;6.25;;;2.88;;
74291;SDS011;62687;55.738;37.516;2023-03-04T01:40:38;7.40;;;2.92;;
74291;SDS011;62687;55.738;37.516;2023-03-04T01:43:26;8.65;;;2.78;;
74291;SDS011;62687;55.738;37.516;2023-03-04T01:46:12;4.43;;;2.35;;
74291;SDS011;62687;55.738;37.516;2023-03-04T01:49:00;6.63;;;3.20;;
74291;SDS011;62687;55.738;37.516;2023-03-04T01:51:46;6.10;;;3.00;;
74291;SDS011;62687;55.738;37.516;2023-03-04T01:54:35;7.75;;;2.97;;
74291;SDS011;62687;55.738;37.516;2023-03-04T01:57:21;8.02;;;2.63;;
74291;SDS011;62687;55.738;37.516;2023-03-04T02:00:16;6.93;;;2.85;;
74291;SDS011;62687;55.738;37.516;2023-03-04T02:03:06;6.35;;;2.45;;
74291;SDS011;62687;55.738;37.516;2023-03-04T02:05:53;7.40;;;2.72;;
74291;SDS011;62687;55.738;37.516;2023-03-04T02:08:38;6.15;;;2.10;;
74291;SDS011;62687;55.738;37.516;2023-03-04T02:11:22;5.03;;;1.98;;
74291;SDS011;62687;55.738;37.516;2023-03-04T02:14:07;5.22;;;2.22;;
74291;SDS011;62687;55.738;37.516;2023-03-04T02:16:53;5.32;;;2.83;;
74291;SDS011;62687;55.738;37.516;2023-03-04T02:19:51;5.28;;;2.50;;
74291;SDS011;62687;55.738;37.516;2023-03-04T02:22:37;5.00;;;2.60;;
74291;SDS011;62687;55.738;37.516;2023-03-04T02:25:37;5.82;;;2.90;;
74291;SDS011;62687;55.738;37.516;2023-03-04T02:28:27;6.38;;;2.40;;
74291;SDS011;62687;55.738;37.516;2023-03-04T02:31:22;5.50;;;2.13;;
74291;SDS011;62687;55.738;37.516;2023-03-04T02:34:13;5.15;;;2.97;;
74291;SDS011;62687;55.738;37.516;2023-03-04T02:37:00;7.20;;;3.40;;
74291;SDS011;62687;55.738;37.516;2023-03-04T02:39:45;7.05;;;3.08;;
74291;SDS011;62687;55.738;37.516;2023-03-04T02:42:31;5.22;;;2.20;;
74291;SDS011;62687;55.738;37.516;2023-03-04T02:48:33;3.97;;;1.92;;
74291;SDS011;62687;55.738;37.516;2023-03-04T02:51:17;2.00;;;0.90;;
74291;SDS011;62687;55.738;37.516;2023-03-04T02:54:01;6.93;;;2.80;;
74291;SDS011;62687;55.738;37.516;2023-03-04T02:56:49;7.07;;;3.00;;
74291;SDS011;62687;55.738;37.516;2023-03-04T02:59:37;6.40;;;3.05;;
74291;SDS011;62687;55.738;37.516;2023-03-04T03:02:22;10.25;;;4.68;;
74291;SDS011;62687;55.738;37.516;2023-03-04T03:05:06;10.43;;;4.65;;
74291;SDS011;62687;55.738;37.516;2023-03-04T03:07:50;10.93;;;4.40;;
74291;SDS011;62687;55.738;37.516;2023-03-04T03:10:35;9.52;;;4.43;;
74291;SDS011;62687;55.738;37.516;2023-03-04T03:13:19;11.27;;;4.43;;
74291;SDS011;62687;55.738;37.516;2023-03-04T03:16:03;11.00;;;4.80;;
74291;SDS011;62687;55.738;37.516;2023-03-04T03:18:47;12.85;;;5.28;;
74291;SDS011;62687;55.738;37.516;2023-03-04T03:21:32;11.70;;;5.90;;
74291;SDS011;62687;55.738;37.516;2023-03-04T03:24:16;8.70;;;3.67;;
74291;SDS011;62687;55.738;37.516;2023-03-04T03:27:00;11.45;;;3.95;;
74291;SDS011;62687;55.738;37.516;2023-03-04T03:29:44;10.80;;;4.28;;
74291;SDS011;62687;55.738;37.516;2023-03-04T03:32:29;10.38;;;4.85;;
74291;SDS011;62687;55.738;37.516;2023-03-04T03:35:13;10.38;;;4.55;;
74291;SDS011;62687;55.738;37.516;2023-03-04T03:37:57;11.45;;;4.72;;
74291;SDS011;62687;55.738;37.516;2023-03-04T03:40:41;6.82;;;2.88;;
74291;SDS011;62687;55.738;37.516;2023-03-04T03:43:24;10.05;;;4.57;;
74291;SDS011;62687;55.738;37.516;2023-03-04T03:46:08;6.18;;;3.20;;
74291;SDS011;62687;55.738;37.516;2023-03-04T03:48:52;3.55;;;1.55;;
74291;SDS011;62687;55.738;37.516;2023-03-04T03:51:36;4.55;;;2.00;;
74291;SDS011;62687;55.738;37.516;2023-03-04T03:54:21;2.75;;;1.50;;
74291;SDS011;62687;55.738;37.516;2023-03-04T03:57:05;6.30;;;3.10;;
74291;SDS011;62687;55.738;37.516;2023-03-04T03:59:49;5.38;;;2.53;;
74291;SDS011;62687;55.738;37.516;2023-03-04T04:02:33;4.05;;;1.48;;
74291;SDS011;62687;55.738;37.516;2023-03-04T04:05:17;3.92;;;1.85;;
74291;SDS011;62687;55.738;37.516;2023-03-04T04:08:02;5.85;;;2.40;;
74291;SDS011;62687;55.738;37.516;2023-03-04T04:10:46;6.93;;;3.30;;
74291;SDS011;62687;55.738;37.516;2023-03-04T04:13:30;5.45;;;2.97;;
74291;SDS011;62687;55.738;37.516;2023-03-04T04:16:14;6.97;;;3.13;;
74291;SDS011;62687;55.738;37.516;2023-03-04T04:18:58;7.30;;;3.38;;
74291;SDS011;62687;55.738;37.516;2023-03-04T04:21:42;6.05;;;2.95;;
74291;SDS011;62687;55.738;37.516;2023-03-04T04:24:26;6.22;;;3.25;;
74291;SDS011;62687;55.738;37.516;2023-03-04T04:27:11;7.10;;;3.38;;
74291;SDS011;62687;55.738;37.516;2023-03-04T04:29:55;8.90;;;3.47;;
74291;SDS011;62687;55.738;37.516;2023-03-04T04:32:39;8.63;;;3.15;;
74291;SDS011;62687;55.738;37.516;2023-03-04T04:35:23;6.72;;;2.78;;
74291;SDS011;62687;55.738;37.516;2023-03-04T04:38:08;7.72;;;3.42;;
74291;SDS011;62687;55.738;37.516;2023-03-04T04:43:39;7.50;;;3.78;;
74291;SDS011;62687;55.738;37.516;2023-03-04T04:46:23;7.22;;;3.60;;
74291;SDS011;62687;55.738;37.516;2023-03-04T04:49:07;8.73;;;3.78;;
74291;SDS011;62687;55.738;37.516;2023-03-04T04:51:52;8.43;;;3.53;;
74291;SDS011;62687;55.738;37.516;2023-03-04T04:54:36;7.68;;;3.92;;
74291;SDS011;62687;55.738;37.516;2023-03-04T04:57:20;8.07;;;4.07;;
74291;SDS011;62687;55.738;37.516;2023-03-04T05:00:04;7.30;;;3.33;;
74291;SDS011;62687;55.738;37.516;2023-03-04T05:02:49;9.88;;;3.40;;
74291;SDS011;62687;55.738;37.516;2023-03-04T05:05:33;9.38;;;3.30;;
74291;SDS011;62687;55.738;37.516;2023-03-04T05:08:17;5.97;;;2.80;;
74291;SDS011;62687;55.738;37.516;2023-03-04T05:11:01;5.82;;;2.92;;
74291;SDS011;62687;55.738;37.516;2023-03-04T05:13:46;6.55;;;3.08;;
74291;SDS011;62687;55.738;37.516;2023-03-04T05:16:30;4.65;;;2.47;;
74291;SDS011;62687;55.738;37.516;2023-03-04T05:19:15;6.43;;;2.22;;
74291;SDS011;62687;55.738;37.516;2023-03-04T05:22:00;6.50;;;2.67;;
74291;SDS011;62687;55.738;37.516;2023-03-04T05:24:44;5.65;;;2.45;;
74291;SDS011;62687;55.738;37.516;2023-03-04T05:27:28;4.55;;;2.17;;
74291;SDS011;62687;55.738;37.516;2023-03-04T05:30:12;5.90;;;2.22;;
74291;SDS011;62687;55.738;37.516;2023-03-04T05:32:56;5.80;;;2.50;;
74291;SDS011;62687;55.738;37.516;2023-03-04T05:35:41;5.88;;;2.10;;
74291;SDS011;62687;55.738;37.516;2023-03-04T05:38:26;4.00;;;2.08;;
74291;SDS011;62687;55.738;37.516;2023-03-04T05:41:10;6.22;;;2.10;;
74291;SDS011;62687;55.738;37.516;2023-03-04T05:43:54;5.05;;;2.15;;
74291;SDS011;62687;55.738;37.516;2023-03-04T05:46:39;4.82;;;1.63;;
74291;SDS011;62687;55.738;37.516;2023-03-04T05:49:23;5.38;;;2.10;;
74291;SDS011;62687;55.738;37.516;2023-03-04T05:52:07;4.40;;;1.95;;
74291;SDS011;62687;55.738;37.516;2023-03-04T05:54:51;7.00;;;2.80;;
74291;SDS011;62687;55.738;37.516;2023-03-04T05:57:35;5.90;;;2.03;;
74291;SDS011;62687;55.738;37.516;2023-03-04T06:00:19;5.68;;;2.10;;
74291;SDS011;62687;55.738;37.516;2023-03-04T06:03:03;5.85;;;2.42;;
74291;SDS011;62687;55.738;37.516;2023-03-04T06:05:47;6.43;;;2.30;;
74291;SDS011;62687;55.738;37.516;2023-03-04T06:08:31;4.97;;;2.40;;
74291;SDS011;62687;55.738;37.516;2023-03-04T06:11:16;5.13;;;2.20;;
74291;SDS011;62687;55.738;37.516;2023-03-04T06:14:00;6.60;;;2.00;;
74291;SDS011;62687;55.738;37.516;2023-03-04T06:16:44;6.55;;;2.30;;
74291;SDS011;62687;55.738;37.516;2023-03-04T06:19:28;6.20;;;2.10;;
74291;SDS011;62687;55.738;37.516;2023-03-04T06:22:12;4.88;;;2.47;;
74291;SDS011;62687;55.738;37.516;2023-03-04T06:24:56;6.82;;;2.33;;
74291;SDS011;62687;55.738;37.516;2023-03-04T06:27:40;6.80;;;2.20;;
74291;SDS011;62687;55.738;37.516;2023-03-04T06:30:24;8.70;;;2.33;;
74291;SDS011;62687;55.738;37.516;2023-03-04T06:33:08;9.60;;;1.77;;
74291;SDS011;62687;55.738;37.516;2023-03-04T06:35:53;10.38;;;3.28;;
74291;SDS011;62687;55.738;37.516;2023-03-04T06:41:22;3.55;;;2.20;;
74291;SDS011;62687;55.738;37.516;2023-03-04T06:44:06;3.40;;;2.00;;
74291;SDS011;62687;55.738;37.516;2023-03-04T06:46:50;4.45;;;1.85;;
74291;SDS011;62687;55.738;37.516;2023-03-04T06:49:34;3.85;;;2.20;;
74291;SDS011;62687;55.738;37.516;2023-03-04T06:52:19;4.38;;;2.13;;
74291;SDS011;62687;55.738;37.516;2023-03-04T06:55:03;4.78;;;1.95;;
74291;SDS011;62687;55.738;37.516;2023-03-04T06:57:47;5.20;;;2.35;;
74291;SDS011;62687;55.738;37.516;2023-03-04T07:00:31;5.75;;;2.63;;
74291;SDS011;62687;55.738;37.516;2023-03-04T07:03:15;4.30;;;2.03;;
74291;SDS011;62687;55.738;37.516;2023-03-04T07:05:59;5.13;;;2.22;;
74291;SDS011;62687;55.738;37.516;2023-03-04T07:08:43;5.80;;;2.30;;
74291;SDS011;62687;55.738;37.516;2023-03-04T07:11:28;4.00;;;2.00;;
74291;SDS011;62687;55.738;37.516;2023-03-04T07:14:12;7.90;;;2.50;;
74291;SDS011;62687;55.738;37.516;2023-03-04T07:16:57;4.72;;;2.20;;
74291;SDS011;62687;55.738;37.516;2023-03-04T07:19:41;4.32;;;2.20;;
74291;SDS011;62687;55.738;37.516;2023-03-04T07:22:25;4.13;;;2.47;;
74291;SDS011;62687;55.738;37.516;2023-03-04T07:25:09;5.72;;;2.30;;
74291;SDS011;62687;55.738;37.516;2023-03-04T07:27:53;6.20;;;2.30;;
74291;SDS011;62687;55.738;37.516;2023-03-04T07:30:38;4.53;;;2.45;;
74291;SDS011;62687;55.738;37.516;2023-03-04T07:33:22;4.82;;;2.15;;
74291;SDS011;62687;55.738;37.516;2023-03-04T07:36:06;4.38;;;2.35;;
74291;SDS011;62687;55.738;37.516;2023-03-04T07:38:51;5.85;;;2.83;;
74291;SDS011;62687;55.738;37.516;2023-03-04T07:41:37;6.28;;;3.13;;
74291;SDS011;62687;55.738;37.516;2023-03-04T07:44:22;7.93;;;2.58;;
74291;SDS011;62687;55.738;37.516;2023-03-04T07:47:06;5.78;;;3.08;;
74291;SDS011;62687;55.738;37.516;2023-03-04T07:49:49;7.95;;;2.70;;
74291;SDS011;62687;55.738;37.516;2023-03-04T07:52:38;6.18;;;3.10;;
74291;SDS011;62687;55.738;37.516;2023-03-04T07:55:23;5.50;;;2.47;;
74291;SDS011;62687;55.738;37.516;2023-03-04T07:58:07;6.30;;;3.00;;
74291;SDS011;62687;55.738;37.516;2023-03-04T08:00:50;4.70;;;2.55;;
74291;SDS011;62687;55.738;37.516;2023-03-04T08:03:41;6.15;;;2.67;;
74291;SDS011;62687;55.738;37.516;2023-03-04T08:06:51;6.78;;;3.00;;
74291;SDS011;62687;55.738;37.516;2023-03-04T08:13:00;7.88;;;2.90;;
74291;SDS011;62687;55.738;37.516;2023-03-04T08:16:17;4.30;;;2.60;;
74291;SDS011;62687;55.738;37.516;2023-03-04T08:22:04;4.78;;;2.47;;
74291;SDS011;62687;55.738;37.516;2023-03-04T08:25:13;4.38;;;2.25;;
74291;SDS011;62687;55.738;37.516;2023-03-04T08:28:14;6.18;;;2.25;;
74291;SDS011;62687;55.738;37.516;2023-03-04T08:31:49;4.30;;;2.30;;
74291;SDS011;62687;55.738;37.516;2023-03-04T08:35:04;4.80;;;2.35;;
74291;SDS011;62687;55.738;37.516;2023-03-04T08:38:08;6.53;;;2.67;;
74291;SDS011;62687;55.738;37.516;2023-03-04T08:41:04;7.10;;;2.80;;
74291;SDS011;62687;55.738;37.516;2023-03-04T08:44:35;3.83;;;1.90;;
74291;SDS011;62687;55.738;37.516;2023-03-04T08:48:12;4.63;;;2.60;;
74291;SDS011;62687;55.738;37.516;2023-03-04T08:51:39;5.97;;;2.70;;
74291;SDS011;62687;55.738;37.516;2023-03-04T08:54:56;4.32;;;2.33;;
74291;SDS011;62687;55.738;37.516;2023-03-04T08:58:26;4.75;;;2.45;;
74291;SDS011;62687;55.738;37.516;2023-03-04T09:01:54;5.05;;;2.35;;
74291;SDS011;62687;55.738;37.516;2023-03-04T09:04:51;5.05;;;2.70;;
74291;SDS011;62687;55.738;37.516;2023-03-04T09:07:38;4.95;;;2.30;;
74291;SDS011;62687;55.738;37.516;2023-03-04T09:10:22;9.10;;;3.25;;
74291;SDS011;62687;55.738;37.516;2023-03-04T09:13:07;6.82;;;2.50;;
74291;SDS011;62687;55.738;37.516;2023-03-04T09:15:54;3.65;;;2.05;;
74291;SDS011;62687;55.738;37.516;2023-03-04T09:18:39;2.58;;;1.48;;
74291;SDS011;62687;55.738;37.516;2023-03-04T09:21:24;5.35;;;2.10;;
74291;SDS011;62687;55.738;37.516;2023-03-04T09:24:08;3.67;;;1.85;;
74291;SDS011;62687;55.738;37.516;2023-03-04T09:26:52;4.88;;;1.70;;
74291;SDS011;62687;55.738;37.516;2023-03-04T09:29:37;2.83;;;1.15;;
74291;SDS011;62687;55.738;37.516;2023-03-04T09:32:21;4.28;;;1.40;;
74291;SDS011;62687;55.738;37.516;2023-03-04T09:35:05;2.95;;;1.40;;
74291;SDS011;62687;55.738;37.516;2023-03-04T09:37:50;3.30;;;1.60;;
74291;SDS011;62687;55.738;37.516;2023-03-04T09:40:40;2.33;;;1.13;;
74291;SDS011;62687;55.738;37.516;2023-03-04T09:43:26;4.35;;;1.35;;
74291;SDS011;62687;55.738;37.516;2023-03-04T09:46:16;3.72;;;1.30;;
74291;SDS011;62687;55.738;37.516;2023-03-04T09:49:05;2.78;;;1.23;;
74291;SDS011;62687;55.738;37.516;2023-03-04T09:51:51;2.50;;;1.25;;
74291;SDS011;62687;55.738;37.516;2023-03-04T10:00:22;2.78;;;1.17;;
74291;SDS011;62687;55.738;37.516;2023-03-04T10:03:16;2.70;;;1.00;;
74291;SDS011;62687;55.738;37.516;2023-03-04T10:06:03;3.05;;;1.42;;
74291;SDS011;62687;55.738;37.516;2023-03-04T10:12:20;4.20;;;1.13;;
74291;SDS011;62687;55.738;37.516;2023-03-04T10:21:35;3.60;;;1.52;;
74291;SDS011;62687;55.738;37.516;2023-03-04T10:24:26;2.10;;;1.17;;
74291;SDS011;62687;55.738;37.516;2023-03-04T10:27:12;3.70;;;1.40;;
74291;SDS011;62687;55.738;37.516;2023-03-04T10:30:00;2.10;;;1.08;;
74291;SDS011;62687;55.738;37.516;2023-03-04T10:32:45;2.85;;;0.98;;
74291;SDS011;62687;55.738;37.516;2023-03-04T10:38:19;2.50;;;1.00;;
74291;SDS011;62687;55.738;37.516;2023-03-04T10:41:19;3.08;;;1.27;;
74291;SDS011;62687;55.738;37.516;2023-03-04T10:46:53;4.22;;;1.60;;
74291;SDS011;62687;55.738;37.516;2023-03-04T10:49:49;2.30;;;1.10;;
74291;SDS011;62687;55.738;37.516;2023-03-04T10:52:54;4.15;;;1.35;;
74291;SDS011;62687;55.738;37.516;2023-03-04T10:55:43;5.25;;;1.30;;
74291;SDS011;62687;55.738;37.516;2023-03-04T10:58:28;4.13;;;1.25;;
74291;SDS011;62687;55.738;37.516;2023-03-04T11:01:13;4.10;;;1.38;;
74291;SDS011;62687;55.738;37.516;2023-03-04T11:03:59;3.55;;;1.60;;
74291;SDS011;62687;55.738;37.516;2023-03-04T11:06:43;3.20;;;1.30;;
74291;SDS011;62687;55.738;37.516;2023-03-04T11:09:28;3.08;;;1.42;;
74291;SDS011;62687;55.738;37.516;2023-03-04T11:12:14;3.53;;;1.73;;
74291;SDS011;62687;55.738;37.516;2023-03-04T11:15:02;13.43;;;2.40;;
74291;SDS011;62687;55.738;37.516;2023-03-04T11:20:38;4.32;;;2.55;;
74291;SDS011;62687;55.738;37.516;2023-03-04T11:23:39;5.75;;;3.00;;
74291;SDS011;62687;55.738;37.516;2023-03-04T11:26:30;5.28;;;2.50;;
74291;SDS011;62687;55.738;37.516;2023-03-04T11:32:44;12.27;;;3.88;;
74291;SDS011;62687;55.738;37.516;2023-03-04T11:35:41;11.27;;;4.00;;
74291;SDS011;62687;55.738;37.516;2023-03-04T11:38:38;4.63;;;2.03;;
74291;SDS011;62687;55.738;37.516;2023-03-04T11:41:32;16.33;;;5.53;;
74291;SDS011;62687;55.738;37.516;2023-03-04T11:44:19;7.72;;;3.60;;
74291;SDS011;62687;55.738;37.516;2023-03-04T11:47:10;10.70;;;3.45;;
74291;SDS011;62687;55.738;37.516;2023-03-04T11:53:25;8.25;;;3.38;;
74291;SDS011;62687;55.738;37.516;2023-03-04T12:02:11;4.72;;;2.88;;
74291;SDS011;62687;55.738;37.516;2023-03-04T12:10:54;13.60;;;3.42;;
74291;SDS011;62687;55.738;37.516;2023-03-04T12:14:00;7.35;;;2.80;;
74291;SDS011;62687;55.738;37.516;2023-03-04T12:20:14;7.72;;;2.10;;
74291;SDS011;62687;55.738;37.516;2023-03-04T12:26:23;7.65;;;2.47;;
74291;SDS011;62687;55.738;37.516;2023-03-04T12:45:24;6.85;;;2.00;;
74291;SDS011;62687;55.738;37.516;2023-03-04T12:57:19;5.15;;;1.52;;
74291;SDS011;62687;55.738;37.516;2023-03-04T13:08:52;7.70;;;2.35;;
74291;SDS011;62687;55.738;37.516;2023-03-04T13:11:52;11.10;;;2.15;;
74291;SDS011;62687;55.738;37.516;2023-03-04T13:15:13;5.00;;;2.03;;
74291;SDS011;62687;55.738;37.516;2023-03-04T13:36:25;7.63;;;2.38;;
74291;SDS011;62687;55.738;37.516;2023-03-04T13:41:59;12.32;;;3.42;;
74291;SDS011;62687;55.738;37.516;2023-03-04T13:47:33;13.35;;;2.80;;
74291;SDS011;62687;55.738;37.516;2023-03-04T13:53:21;9.18;;;3.28;;
74291;SDS011;62687;55.738;37.516;2023-03-04T13:59:09;5.32;;;2.40;;
74291;SDS011;62687;55.738;37.516;2023-03-04T14:02:02;6.80;;;2.70;;
74291;SDS011;62687;55.738;37.516;2023-03-04T14:04:59;8.40;;;2.65;;
74291;SDS011;62687;55.738;37.516;2023-03-04T14:07:44;6.28;;;2.33;;
74291;SDS011;62687;55.738;37.516;2023-03-04T14:10:29;5.30;;;2.10;;
74291;SDS011;62687;55.738;37.516;2023-03-04T14:13:13;9.73;;;2.92;;
74291;SDS011;62687;55.738;37.516;2023-03-04T14:15:57;8.07;;;2.60;;
74291;SDS011;62687;55.738;37.516;2023-03-04T14:18:42;5.97;;;2.25;;
74291;SDS011;62687;55.738;37.516;2023-03-04T14:21:27;10.15;;;2.90;;
74291;SDS011;62687;55.738;37.516;2023-03-04T14:24:12;6.00;;;2.72;;
74291;SDS011;62687;55.738;37.516;2023-03-04T14:27:03;7.85;;;2.45;;
74291;SDS011;62687;55.738;37.516;2023-03-04T14:30:04;6.85;;;2.30;;
74291;SDS011;62687;55.738;37.516;2023-03-04T14:32:54;5.13;;;2.40;;
74291;SDS011;62687;55.738;37.516;2023-03-04T14:35:44;5.10;;;2.28;;
74291;SDS011;62687;55.738;37.516;2023-03-04T14:38:31;6.32;;;2.45;;
74291;SDS011;62687;55.738;37.516;2023-03-04T14:41:29;8.60;;;3.15;;
74291;SDS011;62687;55.738;37.516;2023-03-04T14:47:31;9.07;;;2.53;;
74291;SDS011;62687;55.738;37.516;2023-03-04T14:50:20;7.25;;;2.60;;
74291;SDS011;62687;55.738;37.516;2023-03-04T14:58:53;5.43;;;2.67;;
74291;SDS011;62687;55.738;37.516;2023-03-04T15:01:40;8.20;;;2.30;;
74291;SDS011;62687;55.738;37.516;2023-03-04T15:04:25;6.78;;;2.15;;
74291;SDS011;62687;55.738;37.516;2023-03-04T15:07:16;5.93;;;2.10;;
74291;SDS011;62687;55.738;37.516;2023-03-04T15:10:05;7.63;;;2.72;;
74291;SDS011;62687;55.738;37.516;2023-03-04T15:12:54;4.80;;;2.38;;
74291;SDS011;62687;55.738;37.516;2023-03-04T15:15:44;7.45;;;2.55;;
74291;SDS011;62687;55.738;37.516;2023-03-04T15:18:31;7.90;;;2.20;;
74291;SDS011;62687;55.738;37.516;2023-03-04T15:24:03;8.07;;;2.40;;
74291;SDS011;62687;55.738;37.516;2023-03-04T15:26:48;14.82;;;5.63;;
74291;SDS011;62687;55.738;37.516;2023-03-04T15:29:33;8.77;;;3.05;;
74291;SDS011;62687;55.738;37.516;2023-03-04T15:32:17;4.38;;;2.83;;
74291;SDS011;62687;55.738;37.516;2023-03-04T15:35:01;6.47;;;3.03;;
74291;SDS011;62687;55.738;37.516;2023-03-04T15:37:46;5.13;;;2.75;;
74291;SDS011;62687;55.738;37.516;2023-03-04T15:40:36;10.35;;;3.00;;
74291;SDS011;62687;55.738;37.516;2023-03-04T15:43:24;11.10;;;3.15;;
74291;SDS011;62687;55.738;37.516;2023-03-04T15:46:10;11.07;;;3.30;;
74291;SDS011;62687;55.738;37.516;2023-03-04T15:48:54;6.30;;;2.85;;
74291;SDS011;62687;55.738;37.516;2023-03-04T15:51:38;5.80;;;2.70;;
74291;SDS011;62687;55.738;37.516;2023-03-04T15:54:23;6.07;;;3.13;;
74291;SDS011;62687;55.738;37.516;2023-03-04T15:57:17;5.40;;;2.53;;
74291;SDS011;62687;55.738;37.516;2023-03-04T16:00:06;5.65;;;3.28;;
74291;SDS011;62687;55.738;37.516;2023-03-04T16:02:51;4.03;;;2.67;;
74291;SDS011;62687;55.738;37.516;2023-03-04T16:05:35;4.88;;;2.35;;
74291;SDS011;62687;55.738;37.516;2023-03-04T16:08:21;4.93;;;2.90;;
74291;SDS011;62687;55.738;37.516;2023-03-04T16:11:18;4.13;;;2.72;;
74291;SDS011;62687;55.738;37.516;2023-03-04T16:14:05;8.43;;;3.08;;
74291;SDS011;62687;55.738;37.516;2023-03-04T16:16:49;9.75;;;3.35;;
74291;SDS011;62687;55.738;37.516;2023-03-04T16:19:34;7.60;;;3.50;;
74291;SDS011;62687;55.738;37.516;2023-03-04T16:22:19;6.90;;;3.17;;
74291;SDS011;62687;55.738;37.516;2023-03-04T16:25:08;4.55;;;2.97;;
74291;SDS011;62687;55.738;37.516;2023-03-04T16:27:57;5.03;;;2.97;;
74291;SDS011;62687;55.738;37.516;2023-03-04T16:30:45;8.20;;;3.03;;
74291;SDS011;62687;55.738;37.516;2023-03-04T16:33:29;7.25;;;2.95;;
74291;SDS011;62687;55.738;37.516;2023-03-04T16:39:28;6.57;;;3.00;;
74291;SDS011;62687;55.738;37.516;2023-03-04T16:42:13;4.88;;;3.05;;
74291;SDS011;62687;55.738;37.516;2023-03-04T16:44:59;4.30;;;2.65;;
74291;SDS011;62687;55.738;37.516;2023-03-04T16:47:44;5.90;;;2.88;;
74291;SDS011;62687;55.738;37.516;2023-03-04T16:50:28;6.45;;;2.53;;
74291;SDS011;62687;55.738;37.516;2023-03-04T16:53:46;8.32;;;3.00;;
74291;SDS011;62687;55.738;37.516;2023-03-04T16:56:24;4.43;;;2.70;;
74291;SDS011;62687;55.738;37.516;2023-03-04T16:59:12;10.52;;;3.45;;
74291;SDS011;62687;55.738;37.516;2023-03-04T17:01:58;5.25;;;2.83;;
74291;SDS011;62687;55.738;37.516;2023-03-04T17:04:42;5.65;;;2.95;;
74291;SDS011;62687;55.738;37.516;2023-03-04T17:07:27;6.68;;;3.13;;
74291;SDS011;62687;55.738;37.516;2023-03-04T17:10:12;9.13;;;2.92;;
74291;SDS011;62687;55.738;37.516;2023-03-04T17:12:57;4.65;;;2.22;;
74291;SDS011;62687;55.738;37.516;2023-03-04T17:15:41;4.90;;;2.53;;
74291;SDS011;62687;55.738;37.516;2023-03-04T17:18:28;4.55;;;2.70;;
74291;SDS011;62687;55.738;37.516;2023-03-04T17:21:13;4.65;;;2.95;;
74291;SDS011;62687;55.738;37.516;2023-03-04T17:24:00;5.85;;;3.10;;
74291;SDS011;62687;55.738;37.516;2023-03-04T17:26:47;5.65;;;2.55;;
74291;SDS011;62687;55.738;37.516;2023-03-04T17:29:34;4.07;;;2.38;;
74291;SDS011;62687;55.738;37.516;2023-03-04T17:32:18;4.38;;;2.00;;
74291;SDS011;62687;55.738;37.516;2023-03-04T17:35:02;4.50;;;2.28;;
74291;SDS011;62687;55.738;37.516;2023-03-04T17:37:48;3.67;;;1.65;;
74291;SDS011;62687;55.738;37.516;2023-03-04T17:40:33;5.53;;;2.55;;
74291;SDS011;62687;55.738;37.516;2023-03-04T17:43:17;4.45;;;1.52;;
74291;SDS011;62687;55.738;37.516;2023-03-04T17:46:02;8.40;;;2.60;;
74291;SDS011;62687;55.738;37.516;2023-03-04T17:48:48;6.45;;;1.92;;
74291;SDS011;62687;55.738;37.516;2023-03-04T17:51:35;4.20;;;1.90;;
74291;SDS011;62687;55.738;37.516;2023-03-04T17:54:21;3.10;;;1.75;;
74291;SDS011;62687;55.738;37.516;2023-03-04T17:57:05;2.80;;;1.23;;
74291;SDS011;62687;55.738;37.516;2023-03-04T17:59:49;5.25;;;2.03;;
74291;SDS011;62687;55.738;37.516;2023-03-04T18:02:33;2.55;;;0.95;;
74291;SDS011;62687;55.738;37.516;2023-03-04T18:05:18;2.95;;;1.50;;
74291;SDS011;62687;55.738;37.516;2023-03-04T18:08:02;3.45;;;1.42;;
74291;SDS011;62687;55.738;37.516;2023-03-04T18:10:47;2.60;;;1.30;;
74291;SDS011;62687;55.738;37.516;2023-03-04T18:13:31;3.33;;;1.38;;
74291;SDS011;62687;55.738;37.516;2023-03-04T18:16:15;4.78;;;1.55;;
74291;SDS011;62687;55.738;37.516;2023-03-04T18:19:05;4.03;;;2.03;;
74291;SDS011;62687;55.738;37.516;2023-03-04T18:21:52;3.78;;;0.90;;
74291;SDS011;62687;55.738;37.516;2023-03-04T18:24:36;6.88;;;1.77;;
74291;SDS011;62687;55.738;37.516;2023-03-04T18:27:22;4.05;;;1.20;;
74291;SDS011;62687;55.738;37.516;2023-03-04T18:30:07;6.80;;;1.40;;
74291;SDS011;62687;55.738;37.516;2023-03-04T18:32:53;12.00;;;1.55;;
74291;SDS011;62687;55.738;37.516;2023-03-04T18:35:38;8.10;;;1.25;;
74291;SDS011;62687;55.738;37.516;2023-03-04T18:38:22;7.72;;;2.28;;
74291;SDS011;62687;55.738;37.516;2023-03-04T18:41:07;4.10;;;2.00;;
74291;SDS011;62687;55.738;37.516;2023-03-04T18:43:54;6.05;;;1.60;;
74291;SDS011;62687;55.738;37.516;2023-03-04T18:49:27;4.03;;;1.85;;
74291;SDS011;62687;55.738;37.516;2023-03-04T18:52:12;4.72;;;1.70;;
74291;SDS011;62687;55.738;37.516;2023-03-04T18:54:56;5.80;;;1.27;;
74291;SDS011;62687;55.738;37.516;2023-03-04T18:57:41;2.17;;;0.90;;
74291;SDS011;62687;55.738;37.516;2023-03-04T19:00:30;5.82;;;1.55;;
74291;SDS011;62687;55.738;37.516;2023-03-04T19:03:14;2.67;;;1.20;;
74291;SDS011;62687;55.738;37.516;2023-03-04T19:05:59;2.60;;;0.85;;
74291;SDS011;62687;55.738;37.516;2023-03-04T19:08:43;6.18;;;1.42;;
74291;SDS011;62687;55.738;37.516;2023-03-04T19:11:27;10.73;;;1.10;;
74291;SDS011;62687;55.738;37.516;2023-03-04T19:14:14;4.18;;;1.05;;
74291;SDS011;62687;55.738;37.516;2023-03-04T19:16:58;2.72;;;0.70;;
74291;SDS011;62687;55.738;37.516;2023-03-04T19:19:41;4.13;;;0.77;;
74291;SDS011;62687;55.738;37.516;2023-03-04T19:22:26;2.45;;;0.60;;
74291;SDS011;62687;55.738;37.516;2023-03-04T19:25:11;5.80;;;1.98;;
74291;SDS011;62687;55.738;37.516;2023-03-04T19:27:55;3.13;;;0.38;;
74291;SDS011;62687;55.738;37.516;2023-03-04T19:30:39;7.13;;;1.13;;